Latest Weather Observations for Lake Julius

IDQ60801

Issued at 11:02 pm EST Tuesday 28 January 2020 (issued every 10 minutes, with the page automatically refreshed every 10 minutes)

About weather observations | Map of weather stations | Latest weather observations for QLD | Other Formats
Station Details ID: 029181 Name: LAKE JULIUS AWS Lat: -20.12 Lon: 139.73 Height: 237.0 m
Data from the previous 72 hours. | See also: Recent months at Lake Julius
Date/Time
EST
Temp
°C
App
Temp
°C
Dew
Point
°C
Rel
Hum
%
Delta-T
°C
Wind Press
QNH
hPa
Press
MSL
hPa
Rain since
9am
mm
Dir  Spd
km/h
Gust
km/h
Spd
kts
Gust
kts
28/11:00pm 24.7 26.9 22.6 88 1.4 SSE 15 24 8 13 - - 14.2
28/10:30pm 24.3 26.0 22.4 89 1.3 SSE 17 28 9 15 - - 14.0
28/10:00pm 24.4 25.5 23.0 92 1.0 S 22 33 12 18 - - 13.8
28/09:30pm 24.8 27.3 23.2 91 1.1 SSE 15 26 8 14 - - 13.2
28/09:00pm 24.8 27.7 23.2 91 1.1 SSE 13 24 7 13 - - 12.0
28/08:30pm 24.9 27.5 23.3 91 1.1 SSE 15 28 8 15 - - 10.2
28/08:00pm 25.0 26.8 23.2 90 1.2 SSE 19 32 10 17 - - 8.0
28/07:30pm 25.5 27.9 23.0 86 1.7 S 15 26 8 14 - - 6.8
28/07:00pm 26.1 27.4 22.4 80 2.5 SSE 19 32 10 17 - - 6.6
28/06:30pm 27.1 28.5 21.8 73 3.6 SSE 17 41 9 22 - - 6.6
28/06:00pm 27.7 29.7 22.2 72 3.7 SSE 15 32 8 17 - - 6.6
28/05:30pm 28.7 31.0 22.0 67 4.6 SSE 13 24 7 13 - - 6.6
28/05:00pm 29.1 31.8 22.8 69 4.3 SSE 13 24 7 13 - - 6.6
28/04:30pm 28.2 30.8 23.3 75 3.4 SSE 15 32 8 17 - - 6.6
28/04:00pm 26.8 28.5 22.4 77 3.0 ESE 17 39 9 21 - - 6.6
28/03:30pm 28.9 30.9 22.2 67 4.6 E 15 30 8 16 - - 6.2
28/03:00pm 29.8 31.7 22.0 63 5.3 ESE 15 32 8 17 - - 6.2
28/02:30pm 30.0 31.3 22.4 63 5.2 ESE 19 33 10 18 - - 6.2
28/02:00pm 30.0 32.7 22.9 65 4.9 SE 13 24 7 13 - - 6.2
28/01:30pm 28.0 30.9 23.2 75 3.3 SE 13 24 7 13 - - 6.2
28/01:00pm 28.3 30.8 23.2 74 3.5 ESE 15 28 8 15 - - 6.2
28/12:30pm 26.4 28.4 22.9 81 2.4 ESE 17 35 9 19 - - 6.0
28/12:00pm 27.1 30.5 24.0 83 2.2 E 13 26 7 14 - - 6.0
28/11:30am 25.4 28.9 23.5 89 1.3 ESE 11 24 6 13 - - 5.8
28/11:00am 25.4 28.5 23.5 89 1.3 SE 13 24 7 13 - - 5.2
28/10:30am 24.8 29.1 23.6 93 0.8 ESE 7 15 4 8 - - 4.0
28/10:00am 24.9 29.2 23.7 93 0.8 SE 7 17 4 9 - - 1.8
28/09:30am 24.7 28.7 23.7 94 0.7 ESE 9 19 5 10 - - 1.2
28/09:00am 24.6 28.9 23.6 94 0.7 ESE 7 20 4 11 - - 2.4
28/08:30am 25.1 28.3 23.0 88 1.4 SSE 11 17 6 9 - - 1.4
28/08:00am 25.0 28.6 23.1 89 1.3 SE 9 17 5 9 - - 1.4
28/07:30am 25.2 28.5 22.5 85 1.8 SE 9 19 5 10 - - 1.4
28/07:00am 25.0 28.9 22.5 86 1.7 SE 6 9 3 5 - - 1.4
28/06:30am 25.1 29.0 22.6 86 1.7 ESE 6 13 3 7 - - 1.4
28/06:00am 25.0 28.4 22.7 87 1.6 SSE 9 17 5 9 - - 1.4
28/05:30am 24.9 28.0 22.8 88 1.4 SE 11 20 6 11 - - 1.4
28/05:00am 25.6 29.5 22.9 85 1.8 ESE 7 20 4 11 - - 1.4
28/04:30am 25.7 29.6 23.0 85 1.8 SE 7 17 4 9 - - 1.4
28/04:00am 25.6 29.2 23.1 86 1.7 S 9 15 5 8 - - 1.4
28/03:30am 25.6 29.5 22.9 85 1.8 SSE 7 15 4 8 - - 1.4
28/03:00am 25.5 28.7 23.0 86 1.7 S 11 20 6 11 - - 1.4
28/02:30am 25.6 29.6 23.1 86 1.7 SE 7 17 4 9 - - 1.4
28/02:00am 25.8 29.9 23.3 86 1.7 ESE 7 15 4 8 - - 1.4
28/01:30am 25.7 29.9 23.2 86 1.7 ESE 6 11 3 6 - - 1.4
28/01:00am 25.8 29.3 23.5 87 1.6 ESE 11 20 6 11 - - 1.4
28/12:30am 26.1 30.5 23.4 85 1.9 ESE 6 9 3 5 - - 1.4
28/12:00am 26.1 30.8 23.4 85 1.9 S 4 7 2 4 - - 1.4
 
Date/Time
EST
Temp
°C
App
Temp
°C
Dew
Point
°C
Rel
Hum
%
Delta-T
°C
Wind Press
QNH
hPa
Press
MSL
hPa
Rain since
9am
mm
Dir  Spd
km/h
Gust
km/h
Spd
kts
Gust
kts
27/11:30pm 26.0 30.7 23.3 85 1.9 S 4 4 2 2 - - 1.4
27/11:00pm 26.1 31.6 23.4 85 1.9 CALM 0 2 0 1 - - 1.4
27/10:30pm 26.2 31.8 23.5 85 1.9 CALM 0 4 0 2 - - 1.4
27/10:00pm 26.2 30.8 23.1 83 2.1 ESE 4 4 2 2 - - 1.4
27/09:30pm 26.3 30.8 23.0 82 2.3 ENE 4 7 2 4 - - 1.4
27/09:00pm 26.9 30.0 22.9 79 2.7 ESE 11 26 6 14 - - 1.4
27/08:30pm 28.4 32.8 23.8 76 3.2 ENE 7 11 4 6 - - 1.4
27/08:00pm 28.9 33.5 23.1 71 4.0 ESE 4 6 2 3 - - 1.4
27/07:30pm 29.1 33.5 22.8 69 4.3 ESE 4 6 2 3 - - 1.4
27/07:00pm 29.3 33.1 22.8 68 4.5 E 7 9 4 5 - - 1.4
27/06:30pm 29.5 32.4 22.5 66 4.8 NE 11 17 6 9 - - 1.4
27/06:00pm 29.8 33.6 23.5 69 4.4 ENE 9 15 5 8 - - 1.4
27/05:30pm 30.0 33.4 22.7 65 5.0 ESE 9 19 5 10 - - 1.4
27/05:00pm 30.1 33.0 22.5 63 5.2 ESE 11 17 6 9 - - 1.4
27/04:30pm 30.4 34.9 23.6 67 4.7 NE 6 9 3 5 - - 1.4
27/04:00pm 30.0 34.3 23.7 69 4.4 NE 7 11 4 6 - - 1.4
27/03:30pm 29.5 33.5 23.7 71 4.0 NE 9 15 5 8 - - 1.4
27/03:00pm 29.5 33.7 23.4 69 4.2 NE 7 13 4 7 - - 1.4
27/02:30pm 29.4 32.4 23.4 70 4.2 ENE 13 22 7 12 - - 1.4
27/02:00pm 29.0 33.2 24.1 75 3.4 E 9 20 5 11 - - 1.4
27/01:30pm 27.6 32.8 24.8 85 2.0 NE 6 15 3 8 - - 1.4
27/01:00pm 26.0 30.4 24.4 91 1.1 NE 9 15 5 8 - - 1.4
27/12:30pm 25.1 28.6 23.5 91 1.1 NNE 11 17 6 9 - - 1.2
27/12:00pm 28.6 32.7 23.9 75 3.3 SE 9 22 5 12 - - 0.2
27/11:30am 27.5 32.4 24.4 83 2.2 SSE 6 13 3 7 - - 0.0
27/11:00am 27.4 31.2 23.4 79 2.8 SE 9 17 5 9 - - 0.0
27/10:30am 26.8 29.9 23.5 82 2.3 E 13 24 7 13 - - 0.0
27/10:00am 26.5 30.0 23.6 84 2.0 SSE 11 20 6 11 - - 0.0
27/09:30am 26.5 30.8 23.6 84 2.0 SSE 7 15 4 8 - - 0.0
27/09:00am 25.6 29.3 23.3 87 1.6 SSE 9 24 5 13 - - 13.2
27/08:30am 25.3 29.0 23.2 88 1.4 S 9 15 5 8 - - 13.2
27/08:00am 25.1 30.3 23.5 91 1.1 S 2 4 1 2 - - 13.2
27/07:30am 24.7 29.5 23.5 93 0.8 ESE 4 11 2 6 - - 13.2
27/07:00am 24.4 28.6 23.2 93 0.8 SSE 6 17 3 9 - - 13.2
27/06:30am 24.4 28.6 23.4 94 0.7 ESE 7 15 4 8 - - 13.2
27/06:00am 24.3 28.4 23.3 94 0.7 E 7 13 4 7 - - 13.2
27/05:30am 24.2 28.3 23.3 95 0.6 ESE 7 15 4 8 - - 13.2
27/05:00am 24.3 28.0 23.3 94 0.7 E 9 15 5 8 - - 13.2
27/04:30am 24.5 28.1 23.1 92 1.0 ENE 9 13 5 7 - - 13.2
27/04:00am 24.6 29.5 23.6 94 0.7 ESE 4 7 2 4 - - 13.2
27/03:30am 24.5 29.4 23.6 95 0.6 NE 4 7 2 4 - - 13.2
27/03:00am 24.6 29.5 23.6 94 0.7 ENE 4 9 2 5 - - 11.8
27/02:30am 24.6 28.4 23.4 93 0.8 ENE 9 15 5 8 - - 11.0
27/02:00am 24.9 27.9 24.0 95 0.6 ENE 15 22 8 12 - - 8.8
27/01:30am 25.2 29.8 24.2 94 0.7 ESE 7 15 4 8 - - 7.2
27/01:00am 25.6 30.2 24.2 92 1.0 SSE 7 15 4 8 - - 6.6
27/12:30am 25.5 30.8 24.3 93 0.8 NNE 4 7 2 4 - - 6.4
27/12:00am 25.8 31.8 24.8 94 0.7 E 2 7 1 4 - - 5.8
 
Date/Time
EST
Temp
°C
App
Temp
°C
Dew
Point
°C
Rel
Hum
%
Delta-T
°C
Wind Press
QNH
hPa
Press
MSL
hPa
Rain since
9am
mm
Dir  Spd
km/h
Gust
km/h
Spd
kts
Gust
kts
26/11:30pm 25.6 31.1 24.7 95 0.6 S 4 4 2 2 - - 5.8
26/11:00pm 25.3 31.0 24.4 95 0.6 SW 2 6 1 3 - - 5.8
26/10:30pm 25.3 31.4 24.4 95 0.6 CALM 0 0 0 0 - - 5.8
26/10:00pm 25.2 31.2 24.2 94 0.7 CALM 0 0 0 0 - - 5.8
26/09:30pm 25.3 30.7 23.9 92 1.0 N 2 7 1 4 - - 5.8
26/09:00pm 25.4 30.7 24.4 94 0.7 E 4 9 2 5 - - 5.8
26/08:30pm 26.8 30.9 23.9 84 2.0 E 9 17 5 9 - - 0.0
26/08:00pm 27.5 31.9 23.5 79 2.8 SSE 6 9 3 5 - - 0.0
26/07:30pm 27.5 32.3 23.5 79 2.8 S 4 7 2 4 - - 0.0
26/07:00pm 27.4 31.9 23.6 80 2.6 SE 6 17 3 9 - - 0.0
26/06:30pm 28.1 30.2 23.7 77 3.1 ENE 19 24 10 13 - - 0.0
26/06:00pm 30.2 34.7 23.6 67 4.6 E 6 9 3 5 - - 0.0
26/05:30pm 30.6 35.4 23.5 66 4.9 SE 4 6 2 3 - - 0.0
26/05:00pm 30.7 35.8 23.4 65 5.1 ESE 2 6 1 3 - - 0.0
26/04:30pm 30.2 34.4 23.4 67 4.7 ENE 7 11 4 6 - - 0.0
26/04:00pm 30.0 33.7 23.2 67 4.7 NNE 9 13 5 7 - - 0.0
26/03:30pm 30.0 34.2 23.2 67 4.7 ENE 6 9 3 5 - - 0.0
26/03:00pm 29.6 33.4 23.5 69 4.2 NE 9 13 5 7 - - 0.0
26/02:30pm 29.5 32.9 23.4 69 4.2 ENE 11 15 6 8 - - 0.0
26/02:00pm 29.4 33.2 23.4 70 4.2 NE 9 17 5 9 - - 0.0
26/01:30pm 29.2 34.8 23.6 72 3.9 CALM 0 4 0 2 - - 0.0
26/01:00pm 28.9 32.5 23.1 71 4.0 N 9 13 5 7 - - 0.0
26/12:30pm 28.8 31.6 23.0 71 4.0 NNE 13 19 7 10 - - 0.0
26/12:00pm 28.6 31.5 23.1 72 3.8 NE 13 19 7 10 - - 0.0
26/11:30am 28.6 30.7 23.1 72 3.8 ENE 17 24 9 13 - - 0.0
26/11:00am 28.3 32.1 23.4 75 3.4 ENE 9 17 5 9 - - 0.0
26/10:30am 27.6 32.2 23.8 80 2.6 E 6 15 3 8 - - 0.0
26/10:00am 26.9 31.1 23.2 80 2.5 ENE 6 11 3 6 - - 0.0
26/09:30am 26.7 31.2 23.0 80 2.5 E 4 7 2 4 - - 0.0
26/09:00am 25.8 30.2 23.5 87 1.6 E 6 9 3 5 - - 28.4
26/08:30am 25.1 30.2 23.3 90 1.2 ESE 2 7 1 4 - - 28.4
26/08:00am 24.7 30.1 23.3 92 1.0 CALM 0 0 0 0 - - 28.4
26/07:30am 24.3 29.5 22.9 92 1.0 CALM 0 0 0 0 - - 28.4
26/07:00am 24.1 29.2 22.7 92 0.9 CALM 0 0 0 0 - - 28.4
26/06:30am 23.9 28.6 22.7 93 0.8 ESE 2 6 1 3 - - 28.4
26/06:00am 23.9 28.4 22.9 94 0.7 ESE 4 7 2 4 - - 28.4
26/05:30am 23.9 28.8 23.0 95 0.6 SSE 2 7 1 4 - - 28.4
26/05:00am 23.8 28.2 22.8 94 0.7 SE 4 9 2 5 - - 28.4
26/04:30am 23.8 27.9 23.0 95 0.5 SE 6 11 3 6 - - 28.2
26/04:00am 23.8 28.7 23.0 95 0.5 SE 2 9 1 5 - - 28.2
26/03:30am 23.8 28.7 23.1 96 0.5 ENE 2 6 1 3 - - 23.4
26/03:00am 24.0 28.9 23.1 95 0.6 N 2 6 1 3 - - 17.6
26/02:30am 24.2 28.3 23.0 93 0.8 E 6 11 3 6 - - 16.0
26/02:00am 24.4 28.6 23.2 93 0.8 E 6 9 3 5 - - 14.0
26/01:30am 24.4 29.0 23.2 93 0.8 SSE 4 9 2 5 - - 14.0
26/01:00am 24.5 29.6 23.3 93 0.8 E 2 4 1 2 - - 14.0
26/12:30am 24.5 28.7 23.5 94 0.7 SSW 7 9 4 5 - - 14.0
26/12:00am 24.8 29.5 23.9 95 0.6 S 6 11 3 6 - - 14.0
 
Date/Time
EST
Temp
°C
App
Temp
°C
Dew
Point
°C
Rel
Hum
%
Delta-T
°C
Wind Press
QNH
hPa
Press
MSL
hPa
Rain since
9am
mm
Dir  Spd
km/h
Gust
km/h
Spd
kts
Gust
kts
25/11:30pm 24.7 29.6 23.7 94 0.7 SE 4 6 2 3 - - 13.6

Other formats

Comma delimited format used in spreadsheet applications
http://www.bom.gov.au/fwo/IDQ60801/IDQ60801.94348.axf

JavaScript Object Notation format (JSON) in row-major order
http://www.bom.gov.au/fwo/IDQ60801/IDQ60801.94348.json

Data quality

Most of these data are generated automatically and are frequently updated. Quality checks on data are not normally performed. It is possible for incorrect values to appear. Refer to information at About Latest Weather Observations and please check the disclaimer before using these data.